createdAt,value
2023-03-08T00:04:40.092Z,7.20
2023-03-08T00:09:41.851Z,6.63
2023-03-08T00:14:43.506Z,5.95
2023-03-08T00:19:45.192Z,5.95
2023-03-08T00:24:46.935Z,5.53
2023-03-08T00:29:48.562Z,5.30
2023-03-08T00:34:51.239Z,4.87
2023-03-08T00:39:54.084Z,4.60
2023-03-08T00:44:55.733Z,5.43
2023-03-08T00:49:58.091Z,5.10
2023-03-08T00:54:59.703Z,5.43
2023-03-08T01:00:02.203Z,5.43
2023-03-08T01:05:04.965Z,5.80
2023-03-08T01:10:07.070Z,6.80
2023-03-08T01:15:09.019Z,6.22
2023-03-08T01:20:11.239Z,5.57
2023-03-08T01:25:15.018Z,5.80
2023-03-08T01:30:17.076Z,5.63
2023-03-08T01:35:19.421Z,5.13
2023-03-08T01:40:23.157Z,5.97
2023-03-08T01:46:13.051Z,6.20
2023-03-08T01:51:21.897Z,6.30
2023-03-08T01:56:24.721Z,5.80
2023-03-08T02:01:26.722Z,5.63
2023-03-08T02:06:32.090Z,6.17
2023-03-08T02:11:35.830Z,5.50
2023-03-08T02:16:38.055Z,6.50
2023-03-08T02:21:39.814Z,6.70
2023-03-08T02:26:41.495Z,6.13
2023-03-08T02:31:43.235Z,6.13
2023-03-08T02:36:44.849Z,7.18
2023-03-08T02:41:46.462Z,7.25
2023-03-08T02:46:48.644Z,6.67
2023-03-08T02:51:50.436Z,6.45
2023-03-08T02:56:52.105Z,7.27
2023-03-08T03:01:53.927Z,6.95
2023-03-08T03:06:57.158Z,7.83
2023-03-08T03:11:59.155Z,7.50
2023-03-08T03:17:01.467Z,8.25
2023-03-08T03:22:03.651Z,8.77
2023-03-08T03:27:06.103Z,8.02
2023-03-08T03:32:09.768Z,9.33
2023-03-08T03:37:11.700Z,8.50
2023-03-08T03:42:16.433Z,8.50
2023-03-08T03:47:25.765Z,7.07
2023-03-08T03:52:31.787Z,6.70
2023-03-08T03:57:37.897Z,7.63
2023-03-08T04:02:40.640Z,7.90
2023-03-08T04:07:45.339Z,7.40
2023-03-08T04:12:50.691Z,8.03
2023-03-08T04:17:54.014Z,8.43
2023-03-08T04:22:57.931Z,7.77
2023-03-08T04:28:06.043Z,8.27
2023-03-08T04:33:08.107Z,8.30
2023-03-08T04:38:18.926Z,8.68
2023-03-08T04:43:23.835Z,9.57
2023-03-08T04:48:26.579Z,8.80
2023-03-08T04:53:29.566Z,9.88
2023-03-08T04:58:31.647Z,8.55
2023-03-08T05:03:33.578Z,8.68
2023-03-08T05:08:36.238Z,10.18
2023-03-08T05:13:40.345Z,9.82
2023-03-08T05:18:43.826Z,10.13
2023-03-08T05:23:47.020Z,10.10
2023-03-08T05:28:51.754Z,8.98
2023-03-08T05:33:56.467Z,11.10
2023-03-08T05:39:11.729Z,10.20
2023-03-08T05:44:23.989Z,10.05
2023-03-08T05:49:28.859Z,9.10
2023-03-08T05:54:31.630Z,9.53
2023-03-08T05:59:38.129Z,9.00
2023-03-08T06:04:43.660Z,9.10
2023-03-08T06:09:47.205Z,9.43
2023-03-08T06:14:51.112Z,8.43
2023-03-08T06:19:55.558Z,10.27
2023-03-08T06:24:57.925Z,9.57
2023-03-08T06:30:08.924Z,8.57
2023-03-08T06:35:11.208Z,9.40
2023-03-08T06:40:20.852Z,9.02
2023-03-08T06:45:22.594Z,8.68
2023-03-08T06:50:24.372Z,8.38
2023-03-08T06:55:26.665Z,7.93
2023-03-08T07:00:29.529Z,8.25
2023-03-08T07:05:31.331Z,7.55
2023-03-08T07:10:33.449Z,7.90
2023-03-08T07:15:39.002Z,6.72
2023-03-08T07:20:40.634Z,5.45
2023-03-08T07:25:42.282Z,4.95
2023-03-08T07:30:52.361Z,4.35
2023-03-08T07:35:54.017Z,5.10
2023-03-08T07:40:56.669Z,5.18
2023-03-08T07:46:02.688Z,8.23
2023-03-08T07:51:07.392Z,10.05
2023-03-08T07:56:09.673Z,9.48
2023-03-08T08:01:12.574Z,9.55
2023-03-08T08:06:14.232Z,10.75
2023-03-08T08:11:17.715Z,9.65
2023-03-08T08:16:19.415Z,7.72
2023-03-08T08:21:21.769Z,6.70
2023-03-08T08:26:23.798Z,6.50
2023-03-08T08:31:31.892Z,7.35
2023-03-08T08:36:33.539Z,8.30
2023-03-08T08:41:35.112Z,8.57
2023-03-08T08:46:36.723Z,8.00
2023-03-08T08:51:38.370Z,9.48
2023-03-08T08:56:42.991Z,9.02
2023-03-08T09:01:44.921Z,8.93
2023-03-08T09:06:47.306Z,8.30
2023-03-08T09:11:54.976Z,7.32
2023-03-08T09:16:57.099Z,8.07
2023-03-08T09:21:58.802Z,8.52
2023-03-08T09:27:00.418Z,7.35
2023-03-08T09:32:02.073Z,7.97
2023-03-08T09:37:05.812Z,8.23
2023-03-08T09:42:27.634Z,7.30
2023-03-08T09:47:41.831Z,7.88
2023-03-08T09:52:50.559Z,10.15
2023-03-08T09:57:54.268Z,8.20
2023-03-08T10:03:36.410Z,8.02
2023-03-08T10:09:06.494Z,8.88
2023-03-08T10:14:19.513Z,20.15
2023-03-08T10:19:31.816Z,17.27
2023-03-08T10:24:48.532Z,15.20
2023-03-08T10:29:58.884Z,12.45
2023-03-08T10:35:04.578Z,10.85
2023-03-08T10:40:10.968Z,10.68
2023-03-08T10:45:12.654Z,11.10
2023-03-08T10:50:18.590Z,13.15
2023-03-08T10:55:23.401Z,11.75
2023-03-08T11:00:37.041Z,12.85
2023-03-08T11:05:39.433Z,12.45
2023-03-08T11:10:41.050Z,13.80
2023-03-08T11:15:52.280Z,13.80
2023-03-08T11:21:00.138Z,13.25
2023-03-08T11:26:20.518Z,13.32
2023-03-08T11:31:50.708Z,13.65
2023-03-08T11:37:12.498Z,11.25
2023-03-08T11:42:14.032Z,11.35
2023-03-08T11:47:34.848Z,11.35
2023-03-08T11:52:58.011Z,11.18
2023-03-08T11:58:31.132Z,10.98
2023-03-08T12:03:47.172Z,10.68
2023-03-08T12:08:49.617Z,11.43
2023-03-08T12:13:57.892Z,10.38
2023-03-08T12:19:31.922Z,10.35
2023-03-08T12:24:42.641Z,10.80
2023-03-08T12:29:57.444Z,10.23
2023-03-08T12:35:23.800Z,11.45
2023-03-08T12:40:27.883Z,10.55
2023-03-08T12:45:31.050Z,10.85
2023-03-08T12:50:40.541Z,11.07
2023-03-08T12:55:43.374Z,9.95
2023-03-08T13:00:45.160Z,10.25
2023-03-08T13:05:49.714Z,10.82
2023-03-08T13:11:00.966Z,10.88
2023-03-08T13:16:15.765Z,9.93
2023-03-08T13:21:27.856Z,10.35
2023-03-08T13:26:51.108Z,10.02
2023-03-08T13:31:55.702Z,11.18
2023-03-08T13:36:57.805Z,11.50
2023-03-08T13:42:09.545Z,11.07
2023-03-08T13:47:34.327Z,12.45
2023-03-08T13:52:39.058Z,13.95
2023-03-08T13:57:42.250Z,14.05
2023-03-08T14:02:46.550Z,13.32
2023-03-08T14:08:03.239Z,13.75
2023-03-08T14:13:07.113Z,15.00
2023-03-08T14:18:22.033Z,13.65
2023-03-08T14:23:25.143Z,15.10
2023-03-08T14:29:13.382Z,14.80
2023-03-08T14:34:25.945Z,16.50
2023-03-08T14:39:30.615Z,16.17
2023-03-08T14:44:32.286Z,16.48
2023-03-08T14:49:33.935Z,15.25
2023-03-08T14:54:38.534Z,15.20
2023-03-08T14:59:41.501Z,17.00
2023-03-08T15:04:44.945Z,17.25
2023-03-08T15:09:48.617Z,15.18
2023-03-08T15:14:50.228Z,15.38
2023-03-08T15:19:51.893Z,16.42
2023-03-08T15:24:53.818Z,16.60
2023-03-08T15:29:55.426Z,15.93
2023-03-08T15:34:57.029Z,18.08
2023-03-08T15:39:58.666Z,15.50
2023-03-08T15:45:00.321Z,16.45
2023-03-08T15:50:02.507Z,15.73
2023-03-08T15:55:04.510Z,14.55
2023-03-08T16:00:11.624Z,14.35
2023-03-08T16:05:14.771Z,15.13
2023-03-08T16:10:16.634Z,15.57
2023-03-08T16:15:19.104Z,14.85
2023-03-08T16:20:23.177Z,20.30
2023-03-08T16:25:24.974Z,15.55
2023-03-08T16:30:26.694Z,15.68
2023-03-08T16:35:28.365Z,16.52
2023-03-08T16:40:31.293Z,17.92
2023-03-08T16:45:33.013Z,18.02
2023-03-08T16:50:34.650Z,18.75
2023-03-08T16:55:36.517Z,19.27
2023-03-08T17:00:38.284Z,19.90
2023-03-08T17:05:45.721Z,18.50
2023-03-08T17:10:47.371Z,19.02
2023-03-08T17:15:49.039Z,19.42
2023-03-08T17:20:53.278Z,19.90
2023-03-08T17:25:55.008Z,20.33
2023-03-08T17:30:56.700Z,21.73
2023-03-08T17:36:02.143Z,22.17
2023-03-08T17:41:09.077Z,21.42
2023-03-08T17:46:18.233Z,21.00
2023-03-08T17:51:26.193Z,20.25
2023-03-08T17:56:30.509Z,26.33
2023-03-08T18:01:32.459Z,25.25
2023-03-08T18:06:35.404Z,27.98
2023-03-08T18:11:40.973Z,26.55
2023-03-08T18:16:44.951Z,24.20
2023-03-08T18:21:54.040Z,24.35
2023-03-08T18:26:58.120Z,24.42
2023-03-08T18:32:00.138Z,24.13
2023-03-08T18:37:02.216Z,25.85
2023-03-08T18:42:04.265Z,25.08
2023-03-08T18:47:06.231Z,25.60
2023-03-08T18:52:08.038Z,23.13
2023-03-08T18:57:09.943Z,25.58
2023-03-08T19:02:12.101Z,31.10
2023-03-08T19:07:14.062Z,32.83
2023-03-08T19:12:15.975Z,32.20
2023-03-08T19:17:17.855Z,32.00
2023-03-08T19:22:19.855Z,26.63
2023-03-08T19:27:21.909Z,27.23
2023-03-08T19:32:23.920Z,25.90
2023-03-08T19:37:25.888Z,20.63
2023-03-08T19:42:27.852Z,18.17
2023-03-08T19:47:29.674Z,17.50
2023-03-08T19:52:31.678Z,21.77
2023-03-08T19:57:33.776Z,19.00
2023-03-08T20:02:35.694Z,15.95
2023-03-08T20:07:38.932Z,15.35
2023-03-08T20:12:40.727Z,14.07
2023-03-08T20:17:42.545Z,15.63
2023-03-08T20:22:45.096Z,14.85
2023-03-08T20:27:46.960Z,14.88
2023-03-08T20:32:50.215Z,15.13
2023-03-08T20:37:52.048Z,15.02
2023-03-08T20:42:57.821Z,14.02
2023-03-08T20:47:59.716Z,14.13
2023-03-08T20:53:01.615Z,16.65
2023-03-08T20:58:03.572Z,16.55
2023-03-08T21:03:05.497Z,17.48
2023-03-08T21:08:07.360Z,17.10
2023-03-08T21:13:13.045Z,17.00
2023-03-08T21:18:14.934Z,15.15
2023-03-08T21:23:21.005Z,17.23
2023-03-08T21:28:22.967Z,16.42
2023-03-08T21:33:24.996Z,14.60
2023-03-08T21:38:26.842Z,15.25
2023-03-08T21:43:28.915Z,14.88
2023-03-08T21:48:30.683Z,12.90
2023-03-08T21:53:32.779Z,14.80
2023-03-08T21:58:36.014Z,18.13
2023-03-08T22:03:37.824Z,13.95
2023-03-08T22:08:39.640Z,13.48
2023-03-08T22:13:41.602Z,11.70
2023-03-08T22:18:43.481Z,11.77
2023-03-08T22:23:45.511Z,10.88
2023-03-08T22:28:47.684Z,10.20
2023-03-08T22:33:49.562Z,8.07
2023-03-08T22:38:51.381Z,8.10
2023-03-08T22:43:54.364Z,8.82
2023-03-08T22:48:58.243Z,8.20
2023-03-08T22:54:04.046Z,8.20
2023-03-08T22:59:05.855Z,13.70
2023-03-08T23:04:08.901Z,10.48
2023-03-08T23:09:12.742Z,9.55
2023-03-08T23:14:14.886Z,9.55
2023-03-08T23:19:19.886Z,9.52
2023-03-08T23:24:21.734Z,8.85
2023-03-08T23:29:23.513Z,7.93
2023-03-08T23:34:25.490Z,8.85
2023-03-08T23:39:27.340Z,9.90
2023-03-08T23:44:29.170Z,9.93
2023-03-08T23:49:31.085Z,11.20
2023-03-08T23:54:32.938Z,9.95
2023-03-08T23:59:34.771Z,9.82
